CheckWX is a tool to help pilots better visualize weather data.  It is not intended as a substitute for an official pre-flight weather briefing.

12:19:50 UTC

CYED METAR
Edmonton (CFB Namao) Heliport
Edmonton, Alberta, Canada
Current

1 hour ago

CYED 181100Z AUTO 21002KT 8SM CLR M27/M32 A3039 RMK SLP364
Observed
Feb-18 @ 11:00 UTC
Wind
  • 210° at 2 KTS
Visibility
8 SM
Flight Rules
VFR
Cloud Levels
  • Clear skies
Temperature
-27°C / -17°F
Dewpoint
-32°C / -26°F
Humidity
63%
Altimeter
30.39" Hg
Pressure
1036.4 hPa
Previous

2 hours ago

CYED 181016Z AUTO 21002KT 7SM FEW022 M25/M30 A3040 RMK ICG PAST HR
Observed
Feb-18 @ 10:16 UTC
Wind
  • 210° at 2 KTS
Visibility
7 SM
Flight Rules
VFR
Cloud Levels
  • Few at 2,200' AGL
Temperature
-25°C / -13°F
Dewpoint
-30°C / -22°F
Humidity
63%
Altimeter
30.4" Hg
Pressure
1029.41 hPa
Previous

2 hours ago

CYED 181000Z AUTO 24002KT 4SM BKN020 M24/M27 A3041 RMK ICG PAST HR SLP369
Observed
Feb-18 @ 10:00 UTC
Wind
  • 240° at 2 KTS
Visibility
4 SM
Flight Rules
MVFR
Cloud Levels
  • Broken at 2,000' AGL
Temperature
-24°C / -11°F
Dewpoint
-27°C / -17°F
Humidity
76%
Altimeter
30.41" Hg
Pressure
1036.9 hPa